createdAt,value
2023-03-17T00:00:45.798Z,101182.06
2023-03-17T00:03:21.474Z,101175.91
2023-03-17T00:05:51.359Z,101056.28
2023-03-17T00:08:24.029Z,101183.56
2023-03-17T00:10:53.948Z,101052.94
2023-03-17T00:13:24.402Z,101168.34
2023-03-17T00:15:56.557Z,101116.72
2023-03-17T00:18:27.666Z,101145.53
2023-03-17T00:20:56.807Z,101212.66
2023-03-17T00:23:26.868Z,101187.53
2023-03-17T00:25:57.670Z,101148.69
2023-03-17T00:28:29.057Z,101170.25
2023-03-17T00:31:01.352Z,101150.34
2023-03-17T00:33:35.119Z,101150.06
2023-03-17T00:36:04.370Z,101196.03
2023-03-17T00:38:33.538Z,101080.69
2023-03-17T00:41:03.678Z,101083.69
2023-03-17T00:43:33.004Z,101214.88
2023-03-17T00:46:02.183Z,101195.84
2023-03-17T00:48:32.924Z,101187.13
2023-03-17T00:51:02.224Z,101191.56
2023-03-17T00:53:31.368Z,101065.56
2023-03-17T00:56:00.586Z,101053.91
2023-03-17T00:58:33.042Z,101120.53
2023-03-17T01:01:02.952Z,101207.56
2023-03-17T01:03:34.818Z,101165.63
2023-03-17T01:06:05.878Z,101207.78
2023-03-17T01:08:35.421Z,101164.06
2023-03-17T01:11:04.815Z,101140.94
2023-03-17T01:13:34.655Z,101167.75
2023-03-17T01:16:03.801Z,101210.78
2023-03-17T01:18:34.799Z,101128.38
2023-03-17T01:21:04.346Z,101214.38
2023-03-17T01:23:33.662Z,101210.09
2023-03-17T01:26:02.897Z,101130.84
2023-03-17T01:28:32.199Z,101119.38
2023-03-17T01:31:03.233Z,101064.16
2023-03-17T01:33:32.444Z,101168.09
2023-03-17T01:36:03.231Z,101213.94
2023-03-17T01:38:32.962Z,101053.28
2023-03-17T01:41:03.815Z,101216.84
2023-03-17T01:43:33.177Z,101128.97
2023-03-17T01:46:21.194Z,101091.09
2023-03-17T01:48:57.685Z,101121.91
2023-03-17T01:51:34.368Z,101184.13
2023-03-17T01:54:08.749Z,101010.19
2023-03-17T01:56:41.298Z,101228.44
2023-03-17T01:59:15.052Z,101169.19
2023-03-17T02:01:47.892Z,101148.88
2023-03-17T02:04:18.039Z,101114.13
2023-03-17T02:06:58.867Z,101116.72
2023-03-17T02:09:30.312Z,101214.25
2023-03-17T02:12:02.302Z,101213.50
2023-03-17T02:14:32.023Z,101214.50
2023-03-17T02:17:05.483Z,101206.63
2023-03-17T02:19:34.690Z,100965.84
2023-03-17T02:22:05.775Z,101217.41
2023-03-17T02:24:39.319Z,101178.88
2023-03-17T02:27:13.538Z,101196.47
2023-03-17T02:29:42.934Z,101219.28
2023-03-17T02:32:12.422Z,101215.78
2023-03-17T02:34:42.659Z,101177.31
2023-03-17T02:37:13.498Z,101220.41
2023-03-17T02:39:42.981Z,101217.03
2023-03-17T02:42:13.103Z,101230.19
2023-03-17T02:44:42.287Z,101186.47
2023-03-17T02:47:11.857Z,101230.38
2023-03-17T02:49:42.501Z,101204.06
2023-03-17T02:52:13.694Z,101227.78
2023-03-17T02:54:43.164Z,101232.31
2023-03-17T02:57:12.388Z,101244.72
2023-03-17T02:59:41.945Z,101232.56
2023-03-17T03:02:11.928Z,101248.47
2023-03-17T03:04:41.101Z,101252.03
2023-03-17T03:07:10.432Z,101234.72
2023-03-17T03:09:42.473Z,101246.25
2023-03-17T03:12:11.868Z,101256.88
2023-03-17T03:14:41.263Z,101243.88
2023-03-17T03:17:11.073Z,101251.88
2023-03-17T03:19:40.432Z,101239.78
2023-03-17T03:22:10.004Z,101229.59
2023-03-17T03:24:42.185Z,101233.31
2023-03-17T03:27:11.365Z,101244.69
2023-03-17T03:29:40.615Z,101231.78
2023-03-17T03:32:10.050Z,101243.13
2023-03-17T03:34:39.224Z,101244.91
2023-03-17T03:37:08.589Z,101235.41
2023-03-17T03:39:38.191Z,101225.97
2023-03-17T03:42:09.363Z,101221.75
2023-03-17T03:44:38.592Z,101216.41
2023-03-17T03:47:08.074Z,101218.34
2023-03-17T03:49:37.173Z,101219.38
2023-03-17T03:52:07.090Z,101215.94
2023-03-17T03:54:43.768Z,101217.66
2023-03-17T03:57:14.502Z,101229.00
2023-03-17T03:59:43.677Z,101216.91
2023-03-17T04:02:13.092Z,101215.06
2023-03-17T04:04:42.586Z,101221.25
2023-03-17T04:07:11.952Z,101224.81
2023-03-17T04:09:41.217Z,101171.66
2023-03-17T04:12:11.702Z,101214.69
2023-03-17T04:14:42.820Z,101176.41
2023-03-17T04:17:13.245Z,101175.59
2023-03-17T04:19:53.099Z,101131.03
2023-03-17T04:22:22.598Z,101141.50
2023-03-17T04:24:51.846Z,101203.84
2023-03-17T04:27:21.031Z,101176.06
2023-03-17T04:29:51.687Z,101191.06
2023-03-17T04:32:20.810Z,101145.66
2023-03-17T04:34:50.053Z,101181.63
2023-03-17T04:37:19.189Z,101188.78
2023-03-17T04:39:48.263Z,101149.47
2023-03-17T04:42:17.387Z,101171.44
2023-03-17T04:44:46.638Z,101179.53
2023-03-17T04:47:17.258Z,101192.72
2023-03-17T04:49:46.567Z,101157.91
2023-03-17T04:52:15.693Z,101183.34
2023-03-17T04:54:44.782Z,101168.59
2023-03-17T04:57:14.136Z,101186.16
2023-03-17T04:59:43.270Z,101167.88
2023-03-17T05:02:12.785Z,101192.44
2023-03-17T05:04:45.620Z,101200.31
2023-03-17T05:07:18.126Z,101147.97
2023-03-17T05:09:47.832Z,101176.00
2023-03-17T05:12:17.496Z,101189.97
2023-03-17T05:14:47.051Z,101157.69
2023-03-17T05:17:16.187Z,101184.81
2023-03-17T05:19:47.384Z,101169.16
2023-03-17T05:22:16.754Z,101170.06
2023-03-17T05:24:46.117Z,101157.84
2023-03-17T05:27:15.348Z,101153.53
2023-03-17T05:29:44.487Z,101139.63
2023-03-17T05:32:14.378Z,101170.19
2023-03-17T05:34:43.638Z,101168.50
2023-03-17T05:37:14.631Z,101147.56
2023-03-17T05:39:44.124Z,101157.16
2023-03-17T05:42:13.306Z,101142.34
2023-03-17T05:44:42.586Z,101130.13
2023-03-17T05:47:13.152Z,101139.75
2023-03-17T05:49:42.383Z,101117.91
2023-03-17T05:52:13.058Z,101151.09
2023-03-17T05:54:42.461Z,101141.50
2023-03-17T05:57:11.617Z,101141.47
2023-03-17T05:59:40.800Z,101144.97
2023-03-17T06:02:10.189Z,101127.53
2023-03-17T06:04:39.473Z,101119.66
2023-03-17T06:07:09.951Z,101121.41
2023-03-17T06:09:40.577Z,101132.72
2023-03-17T06:12:10.540Z,101116.16
2023-03-17T06:14:39.655Z,101125.69
2023-03-17T06:17:09.072Z,101113.50
2023-03-17T06:19:38.209Z,101124.81
2023-03-17T06:22:07.583Z,101131.78
2023-03-17T06:24:36.982Z,101114.34
2023-03-17T06:27:07.806Z,101116.94
2023-03-17T06:29:36.954Z,101119.56
2023-03-17T06:32:19.318Z,101094.28
2023-03-17T06:34:49.937Z,101095.09
2023-03-17T06:37:19.766Z,101119.47
2023-03-17T06:39:50.232Z,101115.09
2023-03-17T06:42:21.021Z,101121.22
2023-03-17T06:44:53.240Z,101111.59
2023-03-17T06:47:24.700Z,101114.16
2023-03-17T06:49:55.154Z,101101.03
2023-03-17T06:52:24.261Z,101087.97
2023-03-17T06:54:59.574Z,101103.63
2023-03-17T06:57:30.528Z,101102.69
2023-03-17T06:59:59.716Z,101093.00
2023-03-17T07:02:28.949Z,101098.16
2023-03-17T07:04:59.608Z,101030.16
2023-03-17T07:07:32.044Z,101083.22
2023-03-17T07:10:04.279Z,101050.94
2023-03-17T07:12:35.274Z,100935.13
2023-03-17T07:15:04.480Z,101085.72
2023-03-17T07:17:34.093Z,101056.97
2023-03-17T07:20:03.204Z,101080.41
2023-03-17T07:22:35.806Z,101070.75
2023-03-17T07:25:05.328Z,101077.66
2023-03-17T07:27:36.257Z,101075.03
2023-03-17T07:30:07.004Z,101049.69
2023-03-17T07:32:36.762Z,100981.75
2023-03-17T07:35:06.619Z,100961.00
2023-03-17T07:37:35.827Z,101047.78
2023-03-17T07:40:05.383Z,101043.41
2023-03-17T07:42:36.329Z,100968.59
2023-03-17T07:45:06.582Z,100957.03
2023-03-17T07:47:35.791Z,101016.94
2023-03-17T07:50:07.236Z,101039.50
2023-03-17T07:52:36.668Z,100965.47
2023-03-17T07:55:11.790Z,100934.16
2023-03-17T07:57:42.996Z,100932.38
2023-03-17T08:00:14.124Z,100940.19
2023-03-17T08:06:04.821Z,101022.41
2023-03-17T08:08:34.607Z,101015.34
2023-03-17T08:11:07.093Z,101002.28
2023-03-17T08:13:38.116Z,100997.06
2023-03-17T08:16:08.663Z,101010.94
2023-03-17T08:18:38.704Z,100986.63
2023-03-17T08:21:15.841Z,100890.03
2023-03-17T08:23:46.223Z,100871.81
2023-03-17T08:26:16.440Z,100966.53
2023-03-17T08:28:47.486Z,100982.00
2023-03-17T08:31:18.594Z,100973.31
2023-03-17T08:33:49.616Z,100995.75
2023-03-17T08:36:19.658Z,100993.28
2023-03-17T08:38:50.453Z,100773.09
2023-03-17T08:41:21.969Z,100988.03
2023-03-17T08:43:53.546Z,100988.25
2023-03-17T08:46:25.216Z,100839.91
2023-03-17T08:48:58.172Z,100994.66
2023-03-17T08:51:31.059Z,100928.44
2023-03-17T08:54:30.188Z,100864.25
2023-03-17T08:57:02.531Z,100725.56
2023-03-17T08:59:37.468Z,100984.00
2023-03-17T09:02:10.397Z,100906.25
2023-03-17T09:04:41.680Z,100934.28
2023-03-17T09:07:12.204Z,100963.88
2023-03-17T09:09:41.865Z,100944.13
2023-03-17T09:12:13.932Z,100955.94
2023-03-17T09:14:47.416Z,100970.47
2023-03-17T09:17:19.884Z,100960.38
2023-03-17T09:19:50.383Z,100854.38
2023-03-17T09:22:22.059Z,100924.25
2023-03-17T09:24:51.744Z,100934.69
2023-03-17T09:27:21.049Z,100891.53
2023-03-17T09:29:51.675Z,100955.84
2023-03-17T09:32:20.973Z,100924.47
2023-03-17T09:34:53.106Z,100965.84
2023-03-17T09:37:23.913Z,100929.47
2023-03-17T09:39:53.309Z,100887.41
2023-03-17T09:42:44.234Z,100911.09
2023-03-17T09:45:29.621Z,100855.34
2023-03-17T09:48:33.848Z,100936.34
2023-03-17T09:51:07.177Z,100931.31
2023-03-17T09:53:38.468Z,100902.94
2023-03-17T09:56:14.155Z,100929.75
2023-03-17T09:58:51.153Z,100937.69
2023-03-17T10:01:24.858Z,100942.91
2023-03-17T10:03:54.988Z,100937.03
2023-03-17T10:06:35.233Z,100915.72
2023-03-17T10:09:14.936Z,100929.56
2023-03-17T10:11:49.088Z,100929.88
2023-03-17T10:14:35.474Z,100933.41
2023-03-17T10:17:15.938Z,100920.56
2023-03-17T10:19:49.288Z,100921.81
2023-03-17T10:22:25.684Z,100933.94
2023-03-17T10:25:01.700Z,100929.91
2023-03-17T10:27:36.669Z,100921.47
2023-03-17T10:30:06.606Z,100923.94
2023-03-17T10:32:41.495Z,100911.13
2023-03-17T10:35:13.205Z,100902.56
2023-03-17T10:37:43.918Z,100906.91
2023-03-17T10:40:23.919Z,100916.16
2023-03-17T10:42:57.527Z,100898.53
2023-03-17T10:45:30.518Z,100889.69
2023-03-17T10:48:03.103Z,100896.56
2023-03-17T10:50:35.968Z,100871.69
2023-03-17T10:53:09.983Z,100914.38
2023-03-17T10:55:45.163Z,100879.53
2023-03-17T10:58:19.061Z,100907.88
2023-03-17T11:00:58.504Z,100910.94
2023-03-17T11:03:34.252Z,100888.16
2023-03-17T11:06:05.680Z,100904.97
2023-03-17T11:08:37.087Z,100914.25
2023-03-17T11:11:09.259Z,100921.66
2023-03-17T11:13:38.951Z,100923.53
2023-03-17T11:16:19.575Z,100936.44
2023-03-17T11:18:54.086Z,100912.41
2023-03-17T11:21:27.790Z,100921.38
2023-03-17T11:24:06.320Z,100924.38
2023-03-17T11:27:01.018Z,100922.50
2023-03-17T11:29:46.915Z,100932.00
2023-03-17T11:32:29.819Z,100891.13
2023-03-17T11:35:18.475Z,100930.84
2023-03-17T11:38:09.547Z,100933.94
2023-03-17T11:40:49.446Z,100928.22
2023-03-17T11:43:29.841Z,100937.63
2023-03-17T11:46:06.447Z,100941.81
2023-03-17T11:48:47.852Z,100902.50
2023-03-17T11:51:30.894Z,100932.19
2023-03-17T11:54:10.013Z,100938.41
2023-03-17T11:56:47.257Z,100920.44
2023-03-17T11:59:26.641Z,100924.97
2023-03-17T12:02:03.203Z,100941.00
2023-03-17T12:04:36.766Z,100933.59
2023-03-17T12:07:21.167Z,100933.94
2023-03-17T12:10:00.460Z,100908.16
2023-03-17T12:12:35.907Z,100911.81
2023-03-17T12:15:07.712Z,100949.50
2023-03-17T12:17:41.101Z,100943.50
2023-03-17T12:20:18.752Z,100947.16
2023-03-17T12:22:57.126Z,100939.41
2023-03-17T12:25:33.108Z,100943.00
2023-03-17T12:28:03.632Z,100943.09
2023-03-17T12:30:41.529Z,100947.56
2023-03-17T12:33:21.774Z,100925.88
2023-03-17T12:35:51.048Z,100921.53
2023-03-17T12:38:27.601Z,100761.50
2023-03-17T12:41:16.384Z,100953.00
2023-03-17T12:43:58.182Z,100904.31
2023-03-17T12:46:45.480Z,100890.41
2023-03-17T12:49:50.421Z,100851.22
2023-03-17T12:52:39.125Z,100961.84
2023-03-17T12:55:15.511Z,100886.09
2023-03-17T12:57:47.348Z,100898.28
2023-03-17T13:00:27.508Z,100854.72
2023-03-17T13:03:15.174Z,100951.41
2023-03-17T13:05:49.313Z,100939.22
2023-03-17T13:08:25.997Z,100913.06
2023-03-17T13:11:18.331Z,100781.53
2023-03-17T13:13:59.758Z,100800.69
2023-03-17T13:16:32.549Z,100896.53
2023-03-17T13:19:21.337Z,100925.28
2023-03-17T13:22:15.578Z,100813.75
2023-03-17T13:24:49.674Z,100849.47
2023-03-17T13:27:46.595Z,100828.56
2023-03-17T13:30:46.371Z,100953.16
2023-03-17T13:33:25.128Z,100903.47
2023-03-17T13:36:11.447Z,100875.53
2023-03-17T13:39:17.800Z,100922.59
2023-03-17T13:42:17.787Z,100942.66
2023-03-17T13:45:17.917Z,100939.13
2023-03-17T13:47:47.777Z,100879.00
2023-03-17T13:50:23.176Z,100941.75
2023-03-17T13:52:57.331Z,100919.06
2023-03-17T13:55:41.702Z,100907.69
2023-03-17T13:58:35.940Z,100957.41
2023-03-17T14:01:12.431Z,100851.88
2023-03-17T14:03:49.262Z,100825.81
2023-03-17T14:06:21.523Z,100867.53
2023-03-17T14:08:54.514Z,100821.44
2023-03-17T14:11:30.985Z,100944.25
2023-03-17T14:14:31.230Z,100831.84
2023-03-17T14:17:11.191Z,100867.53
2023-03-17T14:19:43.598Z,100963.44
2023-03-17T14:22:24.803Z,100923.25
2023-03-17T14:24:55.420Z,100945.09
2023-03-17T14:27:26.359Z,100873.56
2023-03-17T14:29:55.572Z,100952.97
2023-03-17T14:32:27.178Z,100958.16
2023-03-17T14:34:58.959Z,100870.97
2023-03-17T14:37:29.944Z,100865.75
2023-03-17T14:40:00.704Z,100934.59
2023-03-17T14:42:31.624Z,100906.72
2023-03-17T14:45:05.639Z,100939.84
2023-03-17T14:47:40.902Z,100954.59
2023-03-17T14:50:18.404Z,100948.53
2023-03-17T14:52:47.706Z,100919.75
2023-03-17T14:55:20.107Z,100884.00
2023-03-17T14:57:54.626Z,100952.00
2023-03-17T15:00:36.828Z,100950.28
2023-03-17T15:03:20.347Z,100943.28
2023-03-17T15:05:50.501Z,100937.16
2023-03-17T15:08:43.193Z,100956.31
2023-03-17T15:11:20.240Z,100928.44
2023-03-17T15:13:50.521Z,100945.88
2023-03-17T15:16:24.057Z,100953.66
2023-03-17T15:19:06.839Z,100930.97
2023-03-17T15:21:39.985Z,100925.75
2023-03-17T15:24:25.298Z,100948.41
2023-03-17T15:27:02.093Z,100945.78
2023-03-17T15:29:31.404Z,100953.56
2023-03-17T15:32:12.910Z,100948.38
2023-03-17T15:34:43.710Z,100936.13
2023-03-17T15:37:23.571Z,100935.25
2023-03-17T15:39:53.379Z,100963.97
2023-03-17T15:42:24.940Z,100958.75
2023-03-17T15:44:54.661Z,100957.84
2023-03-17T15:47:25.546Z,100959.53
2023-03-17T15:50:00.310Z,100963.88
2023-03-17T15:52:30.746Z,100962.97
2023-03-17T15:55:03.572Z,100969.00
2023-03-17T15:57:33.729Z,100972.50
2023-03-17T16:00:03.065Z,100961.13
2023-03-17T16:02:34.790Z,100972.47
2023-03-17T16:05:17.555Z,100948.88
2023-03-17T16:07:46.801Z,100967.25
2023-03-17T16:10:21.482Z,100974.19
2023-03-17T16:12:51.628Z,100971.56
2023-03-17T16:15:23.748Z,100975.84
2023-03-17T16:17:55.709Z,100966.22
2023-03-17T16:20:28.976Z,100971.44
2023-03-17T16:22:59.614Z,100954.84
2023-03-17T16:25:30.794Z,100940.84
2023-03-17T16:28:01.336Z,100961.72
2023-03-17T16:30:32.538Z,100964.31
2023-03-17T16:33:04.624Z,100969.47
2023-03-17T16:35:36.321Z,100958.06
2023-03-17T16:38:05.633Z,100937.13
2023-03-17T16:40:37.613Z,100965.88
2023-03-17T16:43:19.117Z,100968.41
2023-03-17T16:45:55.364Z,100946.59
2023-03-17T16:48:24.927Z,100962.25
2023-03-17T16:50:56.107Z,100964.81
2023-03-17T16:53:29.608Z,100963.06
2023-03-17T16:55:58.871Z,100961.25
2023-03-17T16:58:30.712Z,100960.38
2023-03-17T17:01:02.976Z,100968.19
2023-03-17T17:03:32.693Z,100940.16
2023-03-17T17:06:03.305Z,100974.19
2023-03-17T17:08:32.447Z,100973.28
2023-03-17T17:11:01.517Z,100972.38
2023-03-17T17:13:30.845Z,100965.34
2023-03-17T17:16:00.113Z,100968.81
2023-03-17T17:18:29.492Z,100967.06
2023-03-17T17:20:58.664Z,100972.22
2023-03-17T17:23:30.037Z,100921.53
2023-03-17T17:25:59.161Z,100943.38
2023-03-17T17:28:28.228Z,100964.31
2023-03-17T17:30:58.980Z,100934.72
2023-03-17T17:33:28.181Z,100960.00
2023-03-17T17:35:57.373Z,100959.94
2023-03-17T17:38:29.682Z,100911.03
2023-03-17T17:41:03.584Z,100952.09
2023-03-17T17:43:33.021Z,100947.69
2023-03-17T17:46:02.328Z,100949.44
2023-03-17T17:48:31.463Z,100966.84
2023-03-17T17:51:00.658Z,100964.19
2023-03-17T17:53:31.322Z,100946.63
2023-03-17T17:56:00.431Z,100908.28
2023-03-17T17:58:29.634Z,100960.72
2023-03-17T18:00:59.316Z,100957.22
2023-03-17T18:03:31.554Z,100944.16
2023-03-17T18:06:01.688Z,100957.22
2023-03-17T18:08:32.300Z,100951.97
2023-03-17T18:11:01.491Z,100915.31
2023-03-17T18:13:30.688Z,100931.91
2023-03-17T18:16:00.347Z,100946.69
2023-03-17T18:18:29.589Z,100932.75
2023-03-17T18:20:59.474Z,100909.13
2023-03-17T18:23:28.818Z,100923.97
2023-03-17T18:26:03.178Z,100909.13
2023-03-17T18:28:32.545Z,100930.91
2023-03-17T18:31:07.060Z,100876.72
2023-03-17T18:33:36.387Z,100896.00
2023-03-17T18:36:07.497Z,100922.13
2023-03-17T18:38:37.040Z,100915.13
2023-03-17T18:41:11.558Z,100875.88
2023-03-17T18:43:41.436Z,100899.34
2023-03-17T18:46:10.622Z,100909.75
2023-03-17T18:48:40.014Z,100903.53
2023-03-17T18:51:09.123Z,100900.00
2023-03-17T18:53:39.569Z,100902.59
2023-03-17T18:56:11.283Z,100898.06
2023-03-17T18:58:40.397Z,100899.66
2023-03-17T19:01:09.608Z,100913.53
2023-03-17T19:03:38.847Z,100912.50
2023-03-17T19:06:13.451Z,100866.84
2023-03-17T19:08:43.275Z,100898.16
2023-03-17T19:11:15.693Z,100898.00
2023-03-17T19:13:45.869Z,100912.69
2023-03-17T19:16:15.851Z,100909.97
2023-03-17T19:18:44.966Z,100912.44
2023-03-17T19:21:14.794Z,100907.06
2023-03-17T19:23:44.102Z,100893.81
2023-03-17T19:26:14.797Z,100885.75
2023-03-17T19:28:44.072Z,100908.41
2023-03-17T19:31:13.603Z,100899.56
2023-03-17T19:33:42.876Z,100903.56
2023-03-17T19:36:14.518Z,100910.44
2023-03-17T19:38:43.722Z,100919.19
2023-03-17T19:41:15.799Z,100926.91
2023-03-17T19:43:45.235Z,100928.50
2023-03-17T19:46:14.598Z,100900.50
2023-03-17T19:48:43.878Z,100918.88
2023-03-17T19:51:13.221Z,100921.44
2023-03-17T19:53:42.418Z,100920.47
2023-03-17T19:56:11.553Z,100923.03
2023-03-17T19:58:43.385Z,100922.09
2023-03-17T20:01:13.369Z,100911.59
2023-03-17T20:03:43.100Z,100890.63
2023-03-17T20:06:12.304Z,100903.72
2023-03-17T20:08:41.869Z,100900.22
2023-03-17T20:11:11.929Z,100897.44
2023-03-17T20:13:42.826Z,100869.47
2023-03-17T20:16:14.917Z,100896.47
2023-03-17T20:18:44.096Z,100899.81
2023-03-17T20:21:14.873Z,100899.78
2023-03-17T20:23:45.236Z,100854.25
2023-03-17T20:26:14.640Z,100823.44
2023-03-17T20:28:45.394Z,100793.88
2023-03-17T20:31:14.811Z,100811.13
2023-03-17T20:33:43.974Z,100892.56
2023-03-17T20:36:14.398Z,100779.22
2023-03-17T20:38:44.269Z,100888.16
2023-03-17T20:41:15.451Z,100810.03
2023-03-17T20:43:46.468Z,100875.03
2023-03-17T20:46:19.444Z,100783.94
2023-03-17T20:48:49.357Z,100746.38
2023-03-17T20:51:19.163Z,100802.19
2023-03-17T20:54:31.522Z,100767.97
2023-03-17T20:57:01.820Z,100772.13
2023-03-17T20:59:34.090Z,100773.00
2023-03-17T21:02:05.298Z,100790.41
2023-03-17T21:04:34.520Z,100791.13
2023-03-17T21:07:03.757Z,100756.09
2023-03-17T21:09:33.023Z,100849.66
2023-03-17T21:12:02.188Z,100870.59
2023-03-17T21:14:33.043Z,100869.63
2023-03-17T21:17:03.035Z,100815.06
2023-03-17T21:26:30.344Z,100860.75
2023-03-17T21:28:59.524Z,100792.94
2023-03-17T21:31:30.304Z,100867.50
2023-03-17T21:33:59.579Z,100876.03
2023-03-17T21:36:29.176Z,100763.91
2023-03-17T21:38:58.421Z,100697.22
2023-03-17T21:41:33.729Z,100749.66
2023-03-17T21:44:03.830Z,100743.88
2023-03-17T21:46:34.732Z,100743.41
2023-03-17T21:49:04.141Z,100818.03
2023-03-17T21:51:33.896Z,100743.75
2023-03-17T21:54:04.403Z,100842.13
2023-03-17T21:56:33.897Z,100793.63
2023-03-17T21:59:03.511Z,100842.50
2023-03-17T22:01:35.095Z,100755.69
2023-03-17T22:04:04.256Z,100762.63
2023-03-17T22:06:33.583Z,100730.19
2023-03-17T22:09:03.270Z,100712.97
2023-03-17T22:11:32.916Z,100812.31
2023-03-17T22:14:02.286Z,100839.44
2023-03-17T22:16:34.708Z,100707.97
2023-03-17T22:19:04.264Z,100778.69
2023-03-17T22:21:34.283Z,100720.19
2023-03-17T22:24:03.558Z,100846.88
2023-03-17T22:26:32.964Z,100796.94
2023-03-17T22:29:02.347Z,100767.91
2023-03-17T22:31:32.082Z,100810.06
2023-03-17T22:34:03.111Z,100710.81
2023-03-17T22:36:32.793Z,100716.78
2023-03-17T22:39:02.311Z,100785.09
2023-03-17T22:41:32.410Z,100741.25
2023-03-17T22:44:01.611Z,100748.53
2023-03-17T22:46:30.854Z,100791.97
2023-03-17T22:49:00.201Z,100755.06
2023-03-17T22:51:32.223Z,100703.66
2023-03-17T22:54:01.500Z,100725.16
2023-03-17T22:56:31.255Z,100855.31
2023-03-17T22:59:17.350Z,100805.34
2023-03-17T23:01:52.106Z,100736.38
2023-03-17T23:04:21.357Z,100718.91
2023-03-17T23:06:52.872Z,100705.53
2023-03-17T23:09:22.531Z,100847.97
2023-03-17T23:11:51.785Z,100715.66
2023-03-17T23:14:21.112Z,100857.28
2023-03-17T23:16:50.425Z,100718.91
2023-03-17T23:19:19.614Z,100757.34
2023-03-17T23:21:48.870Z,100855.31
2023-03-17T23:24:19.615Z,100855.25
2023-03-17T23:26:49.023Z,100838.22
2023-03-17T23:29:18.176Z,100856.81
2023-03-17T23:31:47.467Z,100849.63
2023-03-17T23:34:16.660Z,100860.22
2023-03-17T23:36:45.966Z,100865.34
2023-03-17T23:39:15.435Z,100791.16
2023-03-17T23:41:46.225Z,100767.41
2023-03-17T23:44:15.492Z,100774.09
2023-03-17T23:46:45.617Z,100868.31
2023-03-17T23:49:14.908Z,100774.53
2023-03-17T23:51:44.387Z,100841.66
2023-03-17T23:54:14.770Z,100710.84
2023-03-17T23:56:45.574Z,100867.81
2023-03-17T23:59:14.833Z,100868.78
